BWA458 TTPP-TAPA
Flight info
| Callsign | BWA458 |
|---|---|
| Flight time | 1h 0m |
| Altitude | 37000 |
| Route | POS UM402 ANU |
| Aircraft | B38M/M-SDE1FGHILORVWXY/HB1 |
Departure
| Time | 2026-04-26 12:46 |
|---|---|
| Airport | Piarco International Airport (TTPP) |
Arrival
| Time | 2026-04-26 13:46 |
|---|---|
| Airport | V. C. Bird International Airport (TAPA) |
| Time | Latitude | Longitude | Altitude | Speed | Heading |
|---|---|---|---|---|---|
| 2026-04-26 12:10 | 10.59973 | -61.33944 | -8 ft | 0 kts | 13° |
| 2026-04-26 12:33 | 10.59972 | -61.33944 | 19 ft | 1 kts | 13° |
| 2026-04-26 12:33 | 10.59959 | -61.33947 | 19 ft | 3 kts | 13° |
| 2026-04-26 12:33 | 10.59939 | -61.33952 | 22 ft | 3 kts | 13° |
| 2026-04-26 12:33 | 10.59919 | -61.33956 | 20 ft | 3 kts | 13° |
| 2026-04-26 12:34 | 10.59899 | -61.33960 | 21 ft | 3 kts | 6° |
| 2026-04-26 12:34 | 10.59879 | -61.33961 | 20 ft | 3 kts | 354° |
| 2026-04-26 12:34 | 10.59860 | -61.33957 | 20 ft | 3 kts | 338° |
| 2026-04-26 12:34 | 10.59844 | -61.33947 | 21 ft | 3 kts | 310° |
| 2026-04-26 12:35 | 10.59837 | -61.33933 | 22 ft | 2 kts | 272° |
| 2026-04-26 12:35 | 10.59836 | -61.33926 | 23 ft | 0 kts | 270° |
| 2026-04-26 12:39 | 10.59836 | -61.33929 | 22 ft | 1 kts | 270° |
| 2026-04-26 12:39 | 10.59836 | -61.33946 | 19 ft | 3 kts | 270° |
| 2026-04-26 12:39 | 10.59836 | -61.33976 | 19 ft | 5 kts | 270° |
| 2026-04-26 12:39 | 10.59836 | -61.34021 | 19 ft | 7 kts | 270° |
| 2026-04-26 12:40 | 10.59836 | -61.34079 | 19 ft | 9 kts | 270° |
| 2026-04-26 12:40 | 10.59831 | -61.34148 | 19 ft | 10 kts | 246° |
| 2026-04-26 12:40 | 10.59772 | -61.34183 | 19 ft | 11 kts | 182° |
| 2026-04-26 12:40 | 10.59709 | -61.34214 | 19 ft | 11 kts | 261° |
| 2026-04-26 12:41 | 10.59707 | -61.34302 | 19 ft | 13 kts | 269° |
| 2026-04-26 12:41 | 10.59706 | -61.34401 | 19 ft | 15 kts | 269° |
| 2026-04-26 12:41 | 10.59687 | -61.34507 | 20 ft | 16 kts | 231° |
| 2026-04-26 12:41 | 10.59579 | -61.34529 | 19 ft | 17 kts | 179° |
| 2026-04-26 12:42 | 10.59456 | -61.34529 | 19 ft | 18 kts | 184° |
| 2026-04-26 12:42 | 10.59410 | -61.34628 | 20 ft | 17 kts | 271° |
| 2026-04-26 12:42 | 10.59386 | -61.34751 | 21 ft | 19 kts | 254° |
| 2026-04-26 12:42 | 10.59354 | -61.34886 | 19 ft | 20 kts | 264° |
| 2026-04-26 12:43 | 10.59353 | -61.35035 | 19 ft | 22 kts | 270° |
| 2026-04-26 12:43 | 10.59354 | -61.35156 | 19 ft | 11 kts | 276° |
| 2026-04-26 12:43 | 10.59403 | -61.35197 | 19 ft | 10 kts | 347° |
| 2026-04-26 12:43 | 10.59479 | -61.35189 | 19 ft | 12 kts | 15° |
| 2026-04-26 12:44 | 10.59533 | -61.35136 | 22 ft | 8 kts | 87° |
| 2026-04-26 12:44 | 10.59533 | -61.35112 | 19 ft | 0 kts | 90° |
| 2026-04-26 12:45 | 10.59533 | -61.34919 | 19 ft | 62 kts | 90° |
| 2026-04-26 12:45 | 10.59535 | -61.34243 | 20 ft | 127 kts | 90° |
| 2026-04-26 12:45 | 10.59537 | -61.33165 | 114 ft | 169 kts | 90° |
| 2026-04-26 12:46 | 10.59549 | -61.31971 | 833 ft | 174 kts | 89° |
| 2026-04-26 12:46 | 10.59603 | -61.30747 | 1421 ft | 171 kts | 88° |
| 2026-04-26 12:46 | 10.59662 | -61.29563 | 1821 ft | 168 kts | 89° |
| 2026-04-26 12:46 | 10.59738 | -61.28383 | 2271 ft | 166 kts | 88° |
| 2026-04-26 12:47 | 10.59832 | -61.27218 | 2874 ft | 165 kts | 88° |
| 2026-04-26 12:47 | 10.60131 | -61.26064 | 3286 ft | 183 kts | 58° |
| 2026-04-26 12:47 | 10.61255 | -61.25251 | 3521 ft | 218 kts | 21° |
| 2026-04-26 12:47 | 10.62850 | -61.25224 | 3923 ft | 245 kts | 349° |
| 2026-04-26 12:48 | 10.64566 | -61.25586 | 4414 ft | 259 kts | 359° |
| 2026-04-26 12:48 | 10.66389 | -61.25697 | 5130 ft | 262 kts | 360° |
| 2026-04-26 12:48 | 10.68206 | -61.25838 | 5991 ft | 264 kts | 359° |
| 2026-04-26 12:48 | 10.70039 | -61.26006 | 6604 ft | 272 kts | 358° |
| 2026-04-26 12:49 | 10.71925 | -61.26193 | 7387 ft | 271 kts | 357° |
| 2026-04-26 12:49 | 10.73804 | -61.26390 | 8107 ft | 274 kts | 356° |
| 2026-04-26 12:49 | 10.75721 | -61.26590 | 8748 ft | 279 kts | 357° |
| 2026-04-26 12:49 | 10.77674 | -61.26797 | 9308 ft | 291 kts | 356° |
| 2026-04-26 12:50 | 10.79757 | -61.27014 | 9720 ft | 307 kts | 356° |
| 2026-04-26 12:50 | 10.81909 | -61.27239 | 10298 ft | 313 kts | 356° |
| 2026-04-26 12:50 | 10.84114 | -61.27473 | 10754 ft | 326 kts | 356° |
| 2026-04-26 12:50 | 10.86424 | -61.27715 | 11162 ft | 339 kts | 356° |
| 2026-04-26 12:51 | 10.88764 | -61.27961 | 11762 ft | 344 kts | 355° |
| 2026-04-26 12:51 | 10.91176 | -61.28223 | 12538 ft | 346 kts | 355° |
| 2026-04-26 12:51 | 10.93555 | -61.28483 | 13210 ft | 350 kts | 355° |
| 2026-04-26 12:51 | 10.95987 | -61.28749 | 13921 ft | 354 kts | 355° |
| 2026-04-26 12:52 | 10.98452 | -61.29019 | 14554 ft | 358 kts | 355° |
| 2026-04-26 12:52 | 11.00935 | -61.29293 | 15208 ft | 361 kts | 355° |
| 2026-04-26 12:52 | 11.03445 | -61.29569 | 15844 ft | 365 kts | 355° |
| 2026-04-26 12:52 | 11.05937 | -61.29843 | 16445 ft | 368 kts | 354° |
| 2026-04-26 12:53 | 11.08538 | -61.30129 | 17077 ft | 372 kts | 354° |
| 2026-04-26 12:53 | 11.11129 | -61.30414 | 17672 ft | 376 kts | 354° |
| 2026-04-26 12:53 | 11.13697 | -61.30697 | 18252 ft | 379 kts | 354° |
| 2026-04-26 12:53 | 11.16331 | -61.30986 | 18758 ft | 382 kts | 354° |
| 2026-04-26 12:54 | 11.18982 | -61.31278 | 19267 ft | 384 kts | 354° |
| 2026-04-26 12:54 | 11.21653 | -61.31572 | 19768 ft | 387 kts | 354° |
| 2026-04-26 12:54 | 11.24340 | -61.31868 | 20251 ft | 390 kts | 354° |
| 2026-04-26 12:54 | 11.27047 | -61.32166 | 20732 ft | 392 kts | 354° |
| 2026-04-26 12:55 | 11.29772 | -61.32466 | 21206 ft | 395 kts | 354° |
| 2026-04-26 12:55 | 11.32511 | -61.32769 | 21681 ft | 398 kts | 353° |
| 2026-04-26 12:55 | 11.35238 | -61.33069 | 22136 ft | 401 kts | 353° |
| 2026-04-26 12:55 | 11.38020 | -61.33376 | 22588 ft | 403 kts | 353° |
| 2026-04-26 12:56 | 11.40821 | -61.33685 | 23034 ft | 406 kts | 353° |
| 2026-04-26 12:56 | 11.43640 | -61.33997 | 23474 ft | 409 kts | 353° |
| 2026-04-26 12:56 | 11.46477 | -61.34311 | 23852 ft | 411 kts | 353° |
| 2026-04-26 12:56 | 11.49330 | -61.34625 | 24219 ft | 414 kts | 353° |
| 2026-04-26 12:57 | 11.52196 | -61.34943 | 24591 ft | 416 kts | 353° |
| 2026-04-26 12:57 | 11.55085 | -61.35263 | 24953 ft | 418 kts | 353° |
| 2026-04-26 12:57 | 11.57978 | -61.35583 | 25297 ft | 420 kts | 353° |
| 2026-04-26 12:58 | 11.63789 | -61.36226 | 26011 ft | 425 kts | 353° |
| 2026-04-26 12:58 | 11.66731 | -61.36552 | 26366 ft | 427 kts | 353° |
| 2026-04-26 12:58 | 11.69690 | -61.36881 | 26721 ft | 429 kts | 353° |
| 2026-04-26 12:58 | 11.72673 | -61.37211 | 27057 ft | 431 kts | 353° |
| 2026-04-26 12:59 | 11.75660 | -61.37542 | 27385 ft | 434 kts | 353° |
| 2026-04-26 12:59 | 11.78672 | -61.37876 | 27724 ft | 436 kts | 353° |
| 2026-04-26 12:59 | 11.81690 | -61.38210 | 28048 ft | 438 kts | 353° |
| 2026-04-26 12:59 | 11.84730 | -61.38547 | 28375 ft | 440 kts | 353° |
| 2026-04-26 13:00 | 11.87742 | -61.38881 | 28692 ft | 442 kts | 353° |
| 2026-04-26 13:00 | 11.90799 | -61.39221 | 29009 ft | 444 kts | 352° |
| 2026-04-26 13:00 | 11.93883 | -61.39564 | 29331 ft | 446 kts | 352° |
| 2026-04-26 13:00 | 11.96968 | -61.39906 | 29631 ft | 448 kts | 352° |
| 2026-04-26 13:01 | 12.00075 | -61.40251 | 29935 ft | 450 kts | 352° |
| 2026-04-26 13:01 | 12.03195 | -61.40598 | 30199 ft | 452 kts | 352° |
| 2026-04-26 13:01 | 12.06322 | -61.40945 | 30444 ft | 453 kts | 352° |
| 2026-04-26 13:01 | 12.09463 | -61.41294 | 30697 ft | 455 kts | 352° |
| 2026-04-26 13:02 | 12.12616 | -61.41645 | 30947 ft | 457 kts | 352° |
| 2026-04-26 13:02 | 12.15745 | -61.41993 | 31193 ft | 458 kts | 352° |
| 2026-04-26 13:02 | 12.18913 | -61.42345 | 31432 ft | 460 kts | 352° |
| 2026-04-26 13:02 | 12.22099 | -61.42700 | 31682 ft | 461 kts | 352° |
| 2026-04-26 13:03 | 12.25301 | -61.43056 | 31919 ft | 463 kts | 352° |
| 2026-04-26 13:03 | 12.28509 | -61.43413 | 32156 ft | 465 kts | 352° |
| 2026-04-26 13:03 | 12.31734 | -61.43772 | 32388 ft | 467 kts | 352° |
| 2026-04-26 13:03 | 12.34965 | -61.44132 | 32619 ft | 468 kts | 352° |
| 2026-04-26 13:04 | 12.38168 | -61.44489 | 32834 ft | 470 kts | 352° |
| 2026-04-26 13:04 | 12.41424 | -61.44853 | 33060 ft | 472 kts | 352° |
| 2026-04-26 13:04 | 12.44690 | -61.45217 | 33274 ft | 473 kts | 352° |
| 2026-04-26 13:04 | 12.47984 | -61.45584 | 33346 ft | 479 kts | 352° |
| 2026-04-26 13:05 | 12.54699 | -61.46329 | 33307 ft | 493 kts | 352° |
| 2026-04-26 13:05 | 12.58114 | -61.46709 | 33468 ft | 493 kts | 352° |
| 2026-04-26 13:05 | 12.61514 | -61.47089 | 33745 ft | 492 kts | 352° |
| 2026-04-26 13:06 | 12.64914 | -61.47469 | 33990 ft | 491 kts | 352° |
| 2026-04-26 13:06 | 12.68262 | -61.47844 | 34203 ft | 490 kts | 352° |
| 2026-04-26 13:06 | 12.71646 | -61.48224 | 34412 ft | 489 kts | 352° |
| 2026-04-26 13:06 | 12.75028 | -61.48603 | 34640 ft | 488 kts | 352° |
| 2026-04-26 13:07 | 12.78395 | -61.48980 | 34849 ft | 487 kts | 352° |
| 2026-04-26 13:07 | 12.81759 | -61.49357 | 35061 ft | 486 kts | 352° |
| 2026-04-26 13:07 | 12.85120 | -61.49734 | 35288 ft | 485 kts | 352° |
| 2026-04-26 13:07 | 12.88468 | -61.50109 | 35501 ft | 484 kts | 352° |
| 2026-04-26 13:08 | 12.91815 | -61.50485 | 35711 ft | 483 kts | 352° |
| 2026-04-26 13:08 | 12.95154 | -61.50859 | 35909 ft | 483 kts | 352° |
| 2026-04-26 13:08 | 12.98449 | -61.51229 | 36107 ft | 482 kts | 352° |
| 2026-04-26 13:08 | 13.01778 | -61.51603 | 36307 ft | 482 kts | 352° |
| 2026-04-26 13:09 | 13.05111 | -61.51977 | 36494 ft | 481 kts | 352° |
| 2026-04-26 13:09 | 13.08436 | -61.52350 | 36696 ft | 480 kts | 352° |
| 2026-04-26 13:09 | 13.11760 | -61.52723 | 36890 ft | 480 kts | 352° |
| 2026-04-26 13:09 | 13.15074 | -61.53095 | 37013 ft | 480 kts | 352° |
| 2026-04-26 13:10 | 13.21701 | -61.53839 | 37009 ft | 478 kts | 352° |
| 2026-04-26 13:10 | 13.28245 | -61.54698 | 36995 ft | 475 kts | 342° |
| 2026-04-26 13:11 | 13.34586 | -61.56599 | 37026 ft | 476 kts | 342° |
| 2026-04-26 13:11 | 13.37854 | -61.57109 | 36978 ft | 476 kts | 0° |
| 2026-04-26 13:11 | 13.41164 | -61.57000 | 37000 ft | 478 kts | 356° |
| 2026-04-26 13:12 | 13.47797 | -61.57391 | 37017 ft | 479 kts | 355° |
| 2026-04-26 13:12 | 13.54414 | -61.57790 | 37011 ft | 480 kts | 355° |
| 2026-04-26 13:13 | 13.61087 | -61.58196 | 37009 ft | 480 kts | 355° |
| 2026-04-26 13:13 | 13.67756 | -61.58603 | 37010 ft | 480 kts | 355° |
| 2026-04-26 13:14 | 13.74433 | -61.59011 | 37010 ft | 480 kts | 355° |
| 2026-04-26 13:14 | 13.81063 | -61.59416 | 37008 ft | 481 kts | 355° |
| 2026-04-26 13:15 | 13.87741 | -61.59824 | 37012 ft | 481 kts | 355° |
| 2026-04-26 13:15 | 13.93339 | -61.60166 | 37015 ft | 481 kts | 355° |
| 2026-04-26 13:16 | 14.01105 | -61.60642 | 37014 ft | 481 kts | 355° |
| 2026-04-26 13:16 | 14.07792 | -61.61051 | 37012 ft | 481 kts | 355° |
| 2026-04-26 13:17 | 14.17778 | -61.61663 | 37015 ft | 482 kts | 355° |
| 2026-04-26 13:18 | 14.27817 | -61.62279 | 37015 ft | 482 kts | 355° |
| 2026-04-26 13:19 | 14.37876 | -61.62507 | 37015 ft | 483 kts | 357° |
| 2026-04-26 13:19 | 14.44602 | -61.62642 | 37014 ft | 483 kts | 357° |
| 2026-04-26 13:20 | 14.51270 | -61.62781 | 37014 ft | 482 kts | 357° |
| 2026-04-26 13:20 | 14.57982 | -61.62921 | 37020 ft | 483 kts | 356° |
| 2026-04-26 13:21 | 14.64708 | -61.63063 | 37019 ft | 483 kts | 356° |
| 2026-04-26 13:21 | 14.71352 | -61.63202 | 36768 ft | 475 kts | 356° |
| 2026-04-26 13:21 | 14.74621 | -61.63271 | 36528 ft | 468 kts | 357° |
| 2026-04-26 13:22 | 14.77868 | -61.63339 | 36276 ft | 465 kts | 357° |
| 2026-04-26 13:22 | 14.81091 | -61.63407 | 36023 ft | 462 kts | 357° |
| 2026-04-26 13:22 | 14.84297 | -61.63475 | 35786 ft | 460 kts | 357° |
| 2026-04-26 13:22 | 14.87497 | -61.63542 | 35491 ft | 459 kts | 357° |
| 2026-04-26 13:23 | 14.90681 | -61.63609 | 34908 ft | 458 kts | 357° |
| 2026-04-26 13:23 | 14.93875 | -61.63676 | 34290 ft | 459 kts | 357° |
| 2026-04-26 13:23 | 14.97058 | -61.63744 | 33755 ft | 457 kts | 357° |
| 2026-04-26 13:23 | 15.00193 | -61.63810 | 33251 ft | 454 kts | 357° |
| 2026-04-26 13:24 | 15.03337 | -61.63876 | 32754 ft | 451 kts | 357° |
| 2026-04-26 13:24 | 15.06561 | -61.63944 | 32268 ft | 448 kts | 357° |
| 2026-04-26 13:24 | 15.09563 | -61.64008 | 31778 ft | 446 kts | 357° |
| 2026-04-26 13:24 | 15.12669 | -61.64074 | 31288 ft | 443 kts | 357° |
| 2026-04-26 13:25 | 15.15746 | -61.64139 | 30800 ft | 441 kts | 357° |
| 2026-04-26 13:25 | 15.18809 | -61.64204 | 30310 ft | 442 kts | 357° |
| 2026-04-26 13:25 | 15.21930 | -61.64270 | 29706 ft | 455 kts | 357° |
| 2026-04-26 13:25 | 15.25133 | -61.64337 | 29115 ft | 465 kts | 357° |
| 2026-04-26 13:26 | 15.28334 | -61.64405 | 28632 ft | 467 kts | 357° |
| 2026-04-26 13:26 | 15.31585 | -61.64473 | 28166 ft | 468 kts | 357° |
| 2026-04-26 13:26 | 15.34835 | -61.64542 | 27658 ft | 465 kts | 357° |
| 2026-04-26 13:26 | 15.38059 | -61.64610 | 27144 ft | 462 kts | 357° |
| 2026-04-26 13:27 | 15.41262 | -61.64678 | 26637 ft | 458 kts | 357° |
| 2026-04-26 13:27 | 15.44437 | -61.64745 | 26135 ft | 455 kts | 357° |
| 2026-04-26 13:27 | 15.47592 | -61.64812 | 25633 ft | 452 kts | 357° |
| 2026-04-26 13:27 | 15.50720 | -61.64878 | 25148 ft | 449 kts | 357° |
| 2026-04-26 13:28 | 15.53837 | -61.64945 | 24644 ft | 446 kts | 357° |
| 2026-04-26 13:28 | 15.56923 | -61.65010 | 24167 ft | 443 kts | 357° |
| 2026-04-26 13:28 | 15.60001 | -61.65075 | 23635 ft | 456 kts | 357° |
| 2026-04-26 13:28 | 15.63220 | -61.65144 | 23008 ft | 467 kts | 357° |
| 2026-04-26 13:29 | 15.66498 | -61.65213 | 22469 ft | 475 kts | 357° |
| 2026-04-26 13:29 | 15.68698 | -61.65260 | 22127 ft | 480 kts | 357° |
| 2026-04-26 13:29 | 15.73197 | -61.65356 | 21661 ft | 483 kts | 357° |
| 2026-04-26 13:29 | 15.76537 | -61.65468 | 21606 ft | 477 kts | 353° |
| 2026-04-26 13:30 | 15.79780 | -61.66051 | 21425 ft | 474 kts | 345° |
| 2026-04-26 13:30 | 15.83009 | -61.66811 | 21111 ft | 476 kts | 346° |
| 2026-04-26 13:30 | 15.86180 | -61.67515 | 20997 ft | 470 kts | 346° |
| 2026-04-26 13:30 | 15.89401 | -61.68216 | 20210 ft | 473 kts | 346° |
| 2026-04-26 13:31 | 15.92594 | -61.68904 | 19833 ft | 463 kts | 346° |
| 2026-04-26 13:31 | 15.95710 | -61.69575 | 19593 ft | 452 kts | 346° |
| 2026-04-26 13:31 | 15.98756 | -61.70229 | 19498 ft | 440 kts | 346° |
| 2026-04-26 13:31 | 16.01732 | -61.70868 | 19174 ft | 438 kts | 346° |
| 2026-04-26 13:32 | 16.04745 | -61.71513 | 19004 ft | 444 kts | 346° |
| 2026-04-26 13:32 | 16.07769 | -61.72162 | 19014 ft | 444 kts | 346° |
| 2026-04-26 13:32 | 16.10798 | -61.72811 | 18991 ft | 444 kts | 347° |
| 2026-04-26 13:32 | 16.13756 | -61.73446 | 18938 ft | 444 kts | 346° |
| 2026-04-26 13:33 | 16.16770 | -61.74092 | 18883 ft | 440 kts | 346° |
| 2026-04-26 13:33 | 16.19767 | -61.74736 | 18776 ft | 438 kts | 346° |
| 2026-04-26 13:33 | 16.22744 | -61.75375 | 18671 ft | 436 kts | 346° |
| 2026-04-26 13:33 | 16.25708 | -61.76011 | 18352 ft | 433 kts | 346° |
| 2026-04-26 13:34 | 16.28651 | -61.76643 | 17983 ft | 431 kts | 347° |
| 2026-04-26 13:34 | 16.31574 | -61.77271 | 17568 ft | 428 kts | 347° |
| 2026-04-26 13:34 | 16.34476 | -61.77895 | 17109 ft | 424 kts | 347° |
| 2026-04-26 13:34 | 16.36387 | -61.78305 | 16803 ft | 422 kts | 347° |
| 2026-04-26 13:35 | 16.40172 | -61.79119 | 16211 ft | 417 kts | 347° |
| 2026-04-26 13:35 | 16.43004 | -61.79729 | 15772 ft | 414 kts | 347° |
| 2026-04-26 13:35 | 16.45808 | -61.80332 | 15262 ft | 411 kts | 347° |
| 2026-04-26 13:35 | 16.48600 | -61.80933 | 14733 ft | 409 kts | 347° |
| 2026-04-26 13:36 | 16.51378 | -61.81531 | 14203 ft | 405 kts | 347° |
| 2026-04-26 13:36 | 16.54124 | -61.82122 | 13665 ft | 401 kts | 347° |
| 2026-04-26 13:36 | 16.56841 | -61.82707 | 13086 ft | 397 kts | 347° |
| 2026-04-26 13:36 | 16.59506 | -61.83282 | 12519 ft | 394 kts | 347° |
| 2026-04-26 13:37 | 16.62178 | -61.83858 | 11951 ft | 391 kts | 347° |
| 2026-04-26 13:37 | 16.64839 | -61.84431 | 11398 ft | 389 kts | 347° |
| 2026-04-26 13:37 | 16.65738 | -61.84625 | 11208 ft | 389 kts | 347° |
| 2026-04-26 13:37 | 16.68133 | -61.85142 | 10720 ft | 387 kts | 347° |
| 2026-04-26 13:38 | 16.70761 | -61.85709 | 10178 ft | 386 kts | 347° |
| 2026-04-26 13:38 | 16.73383 | -61.86274 | 9616 ft | 384 kts | 347° |
| 2026-04-26 13:38 | 16.75983 | -61.86836 | 9026 ft | 381 kts | 347° |
| 2026-04-26 13:38 | 16.78546 | -61.87389 | 8455 ft | 379 kts | 347° |
| 2026-04-26 13:39 | 16.81114 | -61.87944 | 7894 ft | 376 kts | 348° |
| 2026-04-26 13:39 | 16.83663 | -61.88494 | 7334 ft | 373 kts | 348° |
| 2026-04-26 13:39 | 16.86194 | -61.89041 | 6789 ft | 365 kts | 348° |
| 2026-04-26 13:39 | 16.88620 | -61.89565 | 6272 ft | 349 kts | 348° |
| 2026-04-26 13:40 | 16.89480 | -61.89751 | 6086 ft | 344 kts | 348° |
| 2026-04-26 13:40 | 16.91675 | -61.90226 | 5558 ft | 333 kts | 348° |
| 2026-04-26 13:40 | 16.93892 | -61.90705 | 5015 ft | 323 kts | 348° |
| 2026-04-26 13:40 | 16.95947 | -61.91500 | 4445 ft | 315 kts | 328° |
| 2026-04-26 13:41 | 16.97767 | -61.92713 | 3881 ft | 308 kts | 328° |
| 2026-04-26 13:41 | 16.99555 | -61.93869 | 3395 ft | 296 kts | 328° |
| 2026-04-26 13:41 | 17.01296 | -61.94881 | 2997 ft | 276 kts | 341° |
| 2026-04-26 13:41 | 17.03119 | -61.94987 | 2639 ft | 255 kts | 17° |
| 2026-04-26 13:42 | 17.04543 | -61.94136 | 2553 ft | 221 kts | 50° |
| 2026-04-26 13:42 | 17.05395 | -61.92954 | 2554 ft | 187 kts | 60° |
| 2026-04-26 13:42 | 17.06074 | -61.91936 | 2552 ft | 157 kts | 59° |
| 2026-04-26 13:42 | 17.06708 | -61.90997 | 2579 ft | 160 kts | 62° |
| 2026-04-26 13:43 | 17.07306 | -61.90007 | 2336 ft | 165 kts | 64° |
| 2026-04-26 13:43 | 17.07882 | -61.89004 | 1980 ft | 154 kts | 64° |
| 2026-04-26 13:43 | 17.08446 | -61.88040 | 1772 ft | 156 kts | 63° |
| 2026-04-26 13:43 | 17.08830 | -61.87392 | 1650 ft | 155 kts | 63° |
| 2026-04-26 13:44 | 17.09593 | -61.86123 | 1375 ft | 156 kts | 63° |
| 2026-04-26 13:44 | 17.10157 | -61.85168 | 1168 ft | 155 kts | 62° |
| 2026-04-26 13:44 | 17.10650 | -61.84344 | 989 ft | 153 kts | 62° |
| 2026-04-26 13:44 | 17.11227 | -61.83405 | 826 ft | 153 kts | 61° |
| 2026-04-26 13:45 | 17.11798 | -61.82457 | 627 ft | 154 kts | 62° |
| 2026-04-26 13:45 | 17.12354 | -61.81509 | 407 ft | 153 kts | 62° |
| 2026-04-26 13:45 | 17.12907 | -61.80569 | 171 ft | 151 kts | 59° |
| 2026-04-26 13:45 | 17.13442 | -61.79653 | 72 ft | 139 kts | 58° |
| 2026-04-26 13:46 | 17.13835 | -61.78989 | 66 ft | 74 kts | 58° |
| 2026-04-26 13:46 | 17.14011 | -61.78689 | 69 ft | 37 kts | 58° |
| 2026-04-26 13:46 | 17.14070 | -61.78634 | 65 ft | 8 kts | 352° |
| 2026-04-26 13:46 | 17.14098 | -61.78680 | 69 ft | 9 kts | 273° |
| 2026-04-26 13:47 | 17.14101 | -61.78728 | 66 ft | 11 kts | 274° |
| 2026-04-26 13:47 | 17.14105 | -61.78777 | 69 ft | 13 kts | 275° |
| 2026-04-26 13:47 | 17.14122 | -61.78857 | 63 ft | 10 kts | 314° |
| 2026-04-26 13:47 | 17.14164 | -61.78887 | 61 ft | 2 kts | 316° |
| 2026-04-26 13:48 | 17.14169 | -61.78906 | 66 ft | 4 kts | 273° |
| 2026-04-26 13:48 | 17.14171 | -61.78921 | 64 ft | 1 kts | 277° |
| 2026-04-26 13:48 | 17.14172 | -61.78927 | 58 ft | 1 kts | 279° |